createdAt,value
2018-12-10T00:00:46.094Z,26.1
2018-12-10T00:01:37.391Z,26.1
2018-12-10T00:02:26.478Z,26
2018-12-10T00:03:16.554Z,25.9
2018-12-10T00:04:07.196Z,25.8
2018-12-10T00:04:56.948Z,25.8
2018-12-10T00:05:47.015Z,25.8
2018-12-10T00:06:37.395Z,25.8
2018-12-10T00:24:49.292Z,25.9
2018-12-10T00:25:39.082Z,25.8
2018-12-10T00:26:29.696Z,25.8
2018-12-10T00:27:20.064Z,25.6
2018-12-10T00:28:09.929Z,25.6
2018-12-10T00:28:59.027Z,25.5
2018-12-10T00:29:49.437Z,25.4
2018-12-10T00:30:38.602Z,25.3
2018-12-10T00:31:29.485Z,25.3
2018-12-10T00:32:20.369Z,25.2
2018-12-10T00:33:10.156Z,25.1
2018-12-10T00:33:59.744Z,25.1
2018-12-10T00:34:52.331Z,25.1
2018-12-10T00:35:39.744Z,25.1
2018-12-10T00:36:32.597Z,25.2
2018-12-10T00:37:19.904Z,25.3
2018-12-10T00:38:10.219Z,25.3
2018-12-10T00:38:59.981Z,25.4
2018-12-10T00:39:49.918Z,25.5
2018-12-10T00:40:40.368Z,25.6
2018-12-10T00:41:30.476Z,25.7
2018-12-10T00:42:20.329Z,25.8
2018-12-10T00:43:10.113Z,25.8
2018-12-10T00:44:00.914Z,25.9
2018-12-10T00:44:50.358Z,26
2018-12-10T00:45:40.617Z,26.1
2018-12-10T00:46:31.456Z,26.1
2018-12-10T00:47:21.370Z,26.2
2018-12-10T00:48:10.396Z,26.3
2018-12-10T00:49:01.108Z,26.3
2018-12-10T00:49:51.398Z,26.4
2018-12-10T00:50:41.178Z,26.4
2018-12-10T00:51:31.184Z,26.4
2018-12-10T00:52:20.403Z,26.3
2018-12-10T00:53:10.187Z,26.2
2018-12-10T00:54:00.876Z,26.1
2018-12-10T00:54:50.855Z,25.9
2018-12-10T00:55:41.234Z,25.9
2018-12-10T00:56:31.015Z,25.8
2018-12-10T00:57:21.023Z,25.7
2018-12-10T00:58:11.372Z,25.6
2018-12-10T00:59:01.445Z,25.6
2018-12-10T00:59:51.497Z,25.5
2018-12-10T01:00:41.542Z,25.3
2018-12-10T01:01:31.587Z,25.3
2018-12-10T01:02:21.382Z,25.2
2018-12-10T01:03:12.007Z,25.1
2018-12-10T01:04:01.847Z,25.1
2018-12-10T01:04:52.212Z,25.1
2018-12-10T01:05:42.177Z,25.1
2018-12-10T01:06:31.689Z,25.1
2018-12-10T01:07:21.199Z,25.1
2018-12-10T01:08:11.817Z,25.2
2018-12-10T01:09:01.837Z,25.3
2018-12-10T01:09:52.452Z,25.3
2018-12-10T01:10:43.031Z,25.4
2018-12-10T01:11:32.454Z,25.5
2018-12-10T01:12:22.337Z,25.6
2018-12-10T01:13:12.187Z,25.7
2018-12-10T01:14:03.029Z,25.8
2018-12-10T01:14:53.007Z,25.9
2018-12-10T01:15:42.776Z,25.9
2018-12-10T01:16:32.842Z,26
2018-12-10T01:17:23.460Z,26.1
2018-12-10T01:18:12.963Z,26.1
2018-12-10T01:19:03.297Z,26.2
2018-12-10T01:19:53.151Z,26.3
2018-12-10T01:20:43.126Z,26.3
2018-12-10T01:21:34.156Z,26.4
2018-12-10T01:22:23.082Z,26.4
2018-12-10T01:23:13.330Z,26.4
2018-12-10T01:24:03.648Z,26.5
2018-12-10T01:24:53.431Z,26.5
2018-12-10T01:25:44.531Z,26.5
2018-12-10T01:26:33.303Z,26.4
2018-12-10T01:27:24.396Z,26.3
2018-12-10T01:28:13.416Z,26.3
2018-12-10T01:29:03.158Z,26.1
2018-12-10T01:29:53.584Z,26
2018-12-10T01:30:43.823Z,25.9
2018-12-10T01:31:34.785Z,25.8
2018-12-10T01:32:23.696Z,25.7
2018-12-10T01:33:13.419Z,25.6
2018-12-10T01:34:03.777Z,25.5
2018-12-10T01:34:54.385Z,25.4
2018-12-10T01:35:44.673Z,25.3
2018-12-10T01:36:34.288Z,25.3
2018-12-10T01:37:23.968Z,25.3
2018-12-10T01:38:14.878Z,25.2
2018-12-10T01:39:04.476Z,25.2
2018-12-10T01:39:54.743Z,25.1
2018-12-10T01:40:43.948Z,25.2
2018-12-10T01:41:34.523Z,25.3
2018-12-10T01:42:24.026Z,25.3
2018-12-10T01:43:15.496Z,25.4
2018-12-10T01:44:05.384Z,25.4
2018-12-10T01:44:55.101Z,25.5
2018-12-10T01:45:44.564Z,25.6
2018-12-10T01:46:35.020Z,25.7
2018-12-10T01:47:25.225Z,25.8
2018-12-10T01:48:14.709Z,25.8
2018-12-10T01:49:04.255Z,25.8
2018-12-10T01:49:55.207Z,25.7
2018-12-10T01:50:44.341Z,25.6
2018-12-10T01:51:35.257Z,25.6
2018-12-10T01:52:25.960Z,25.6
2018-12-10T01:53:16.197Z,25.6
2018-12-10T01:54:05.137Z,25.6
2018-12-10T01:54:54.480Z,25.5
2018-12-10T01:55:44.804Z,25.4
2018-12-10T01:56:34.737Z,25.4
2018-12-10T01:57:25.054Z,25.4
2018-12-10T01:58:16.322Z,25.4
2018-12-10T01:59:05.779Z,25.4
2018-12-10T01:59:55.338Z,25.4
2018-12-10T02:00:45.324Z,25.3
2018-12-10T02:01:36.552Z,25.3
2018-12-10T02:02:25.499Z,25.4
2018-12-10T02:03:16.079Z,25.4
2018-12-10T02:04:06.194Z,25.5
2018-12-10T02:04:56.237Z,25.6
2018-12-10T02:05:46.462Z,25.7
2018-12-10T02:06:36.272Z,25.8
2018-12-10T02:07:26.051Z,25.8
2018-12-10T02:08:16.374Z,25.9
2018-12-10T02:09:06.163Z,25.9
2018-12-10T02:09:55.109Z,26.1
2018-12-10T02:10:46.561Z,26.1
2018-12-10T02:11:36.381Z,26.1
2018-12-10T02:12:26.382Z,26.3
2018-12-10T02:13:16.444Z,26.3
2018-12-10T02:14:07.437Z,26.3
2018-12-10T02:14:56.571Z,26.3
2018-12-10T02:15:46.359Z,26.1
2018-12-10T02:16:36.685Z,26
2018-12-10T02:17:27.568Z,25.9
2018-12-10T02:18:16.786Z,25.8
2018-12-10T02:19:07.728Z,25.7
2018-12-10T02:19:57.578Z,25.6
2018-12-10T02:20:47.240Z,25.5
2018-12-10T02:21:37.285Z,25.4
2018-12-10T02:22:27.166Z,25.3
2018-12-10T02:23:17.182Z,25.3
2018-12-10T02:24:07.083Z,25.2
2018-12-10T02:24:57.643Z,25.1
2018-12-10T02:25:47.885Z,25.1
2018-12-10T02:26:38.246Z,25
2018-12-10T02:27:27.542Z,25
2018-12-10T02:28:18.166Z,25.1
2018-12-10T02:29:07.877Z,25.1
2018-12-10T02:29:58.110Z,25.2
2018-12-10T02:30:48.255Z,25.3
2018-12-10T02:31:37.744Z,25.3
2018-12-10T02:32:27.799Z,25.3
2018-12-10T02:33:18.376Z,25.4
2018-12-10T02:34:08.194Z,25.5
2018-12-10T02:34:58.090Z,25.6
2018-12-10T02:35:48.162Z,25.7
2018-12-10T02:36:38.170Z,25.8
2018-12-10T02:37:28.256Z,25.9
2018-12-10T02:38:18.204Z,25.9
2018-12-10T02:39:08.639Z,26
2018-12-10T02:39:58.630Z,26.1
2018-12-10T02:40:48.656Z,26.1
2018-12-10T02:41:37.997Z,26.2
2018-12-10T02:42:29.362Z,26.2
2018-12-10T02:43:18.828Z,26.3
2018-12-10T02:44:09.470Z,26.3
2018-12-10T02:44:58.879Z,26.3
2018-12-10T02:45:49.014Z,26.3
2018-12-10T02:46:38.303Z,26.1
2018-12-10T02:47:29.725Z,26
2018-12-10T02:48:18.480Z,25.9
2018-12-10T02:49:09.783Z,25.8
2018-12-10T02:50:00.133Z,25.7
2018-12-10T02:50:49.435Z,25.6
2018-12-10T02:51:38.917Z,25.5
2018-12-10T02:52:29.503Z,25.5
2018-12-10T02:53:18.698Z,25.4
2018-12-10T02:54:09.054Z,25.3
2018-12-10T02:54:59.755Z,25.3
2018-12-10T02:55:50.284Z,25.1
2018-12-10T02:56:40.033Z,25.1
2018-12-10T02:57:30.341Z,25.1
2018-12-10T02:58:19.041Z,25.1
2018-12-10T02:59:09.919Z,25
2018-12-10T03:00:00.301Z,25.1
2018-12-10T03:00:50.109Z,25.1
2018-12-10T03:01:40.644Z,25.2
2018-12-10T03:02:30.505Z,25.3
2018-12-10T03:03:20.380Z,25.3
2018-12-10T03:04:09.566Z,25.4
2018-12-10T03:05:00.700Z,25.4
2018-12-10T03:05:50.178Z,25.6
2018-12-10T03:06:40.505Z,25.6
2018-12-10T03:07:30.653Z,25.7
2018-12-10T03:08:20.560Z,25.8
2018-12-10T03:09:10.921Z,25.9
2018-12-10T03:10:00.967Z,25.9
2018-12-10T03:10:50.959Z,26
2018-12-10T03:11:40.925Z,26.1
2018-12-10T03:12:30.586Z,26.1
2018-12-10T03:13:21.175Z,26.2
2018-12-10T03:14:10.729Z,26.3
2018-12-10T03:15:01.609Z,26.3
2018-12-10T03:15:51.377Z,26.4
2018-12-10T03:16:41.162Z,26.4
2018-12-10T03:17:30.913Z,26.4
2018-12-10T03:18:21.535Z,26.4
2018-12-10T03:19:11.194Z,26.3
2018-12-10T03:20:01.361Z,26.3
2018-12-10T03:20:53.700Z,26.1
2018-12-10T03:21:42.047Z,25.9
2018-12-10T03:22:31.376Z,25.9
2018-12-10T03:23:21.591Z,25.8
2018-12-10T03:24:11.381Z,25.7
2018-12-10T03:25:01.698Z,25.6
2018-12-10T03:25:51.467Z,25.6
2018-12-10T03:26:42.420Z,25.4
2018-12-10T03:27:31.597Z,25.3
2018-12-10T03:28:22.341Z,25.3
2018-12-10T03:29:11.974Z,25.2
2018-12-10T03:30:01.880Z,25.1
2018-12-10T03:30:53.086Z,25.1
2018-12-10T03:31:42.401Z,25.1
2018-12-10T03:32:31.384Z,25.1
2018-12-10T03:33:23.103Z,25.1
2018-12-10T03:34:12.658Z,25.2
2018-12-10T03:35:02.477Z,25.2
2018-12-10T03:35:52.390Z,25.3
2018-12-10T03:36:43.241Z,25.3
2018-12-10T03:37:31.766Z,25.4
2018-12-10T03:38:22.854Z,25.4
2018-12-10T03:39:12.906Z,25.5
2018-12-10T03:40:02.464Z,25.5
2018-12-10T03:40:52.331Z,25.5
2018-12-10T03:41:42.554Z,25.5
2018-12-10T03:42:32.375Z,25.4
2018-12-10T03:43:22.469Z,25.4
2018-12-10T03:44:12.720Z,25.4
2018-12-10T03:45:02.764Z,25.4
2018-12-10T03:45:53.523Z,25.4
2018-12-10T03:46:43.416Z,25.3
2018-12-10T03:47:33.291Z,25.3
2018-12-10T03:48:22.698Z,25.3
2018-12-10T03:49:13.025Z,25.3
2018-12-10T03:50:03.250Z,25.3
2018-12-10T03:50:52.910Z,25.2
2018-12-10T03:51:44.168Z,25.2
2018-12-10T03:52:32.852Z,25.3
2018-12-10T03:53:22.304Z,25.3
2018-12-10T03:54:13.680Z,25.3
2018-12-10T03:55:04.341Z,25.4
2018-12-10T03:55:53.837Z,25.4
2018-12-10T03:56:43.325Z,25.5
2018-12-10T03:57:33.664Z,25.6
2018-12-10T03:58:23.952Z,25.7
2018-12-10T03:59:13.983Z,25.8
2018-12-10T04:00:04.734Z,25.8
2018-12-10T04:00:54.423Z,25.9
2018-12-10T04:01:43.920Z,26
2018-12-10T04:02:34.268Z,26.1
2018-12-10T04:03:24.834Z,26.1
2018-12-10T04:04:14.147Z,26.2
2018-12-10T04:05:04.397Z,26.2
2018-12-10T04:05:54.777Z,26.3
2018-12-10T04:06:44.004Z,26.3
2018-12-10T04:07:34.263Z,26.2
2018-12-10T04:08:24.773Z,26.1
2018-12-10T04:09:14.698Z,25.9
2018-12-10T04:10:04.247Z,25.8
2018-12-10T04:10:54.561Z,25.8
2018-12-10T04:11:45.179Z,25.6
2018-12-10T04:12:34.919Z,25.6
2018-12-10T04:13:24.511Z,25.5
2018-12-10T04:14:15.040Z,25.4
2018-12-10T04:15:05.137Z,25.3
2018-12-10T04:15:54.885Z,25.2
2018-12-10T04:16:44.963Z,25.1
2018-12-10T04:17:34.778Z,25.1
2018-12-10T04:18:27.624Z,25
2018-12-10T04:19:15.792Z,25
2018-12-10T04:20:04.664Z,25
2018-12-10T04:20:55.861Z,25
2018-12-10T04:21:45.331Z,25.1
2018-12-10T04:22:35.932Z,25.1
2018-12-10T04:23:25.671Z,25.2
2018-12-10T04:24:16.243Z,25.3
2018-12-10T04:25:21.946Z,25.3
2018-12-10T04:25:56.444Z,25.4
2018-12-10T04:26:46.211Z,25.5
2018-12-10T04:27:36.396Z,25.6
2018-12-10T04:28:26.577Z,25.7
2018-12-10T04:29:16.361Z,25.8
2018-12-10T04:30:06.250Z,25.8
2018-12-10T04:30:56.373Z,25.9
2018-12-10T04:31:45.738Z,25.9
2018-12-10T04:32:36.085Z,26
2018-12-10T04:33:26.437Z,26.1
2018-12-10T04:34:15.839Z,26.1
2018-12-10T04:35:06.755Z,26.2
2018-12-10T04:35:56.608Z,26.3
2018-12-10T04:36:47.210Z,26.3
2018-12-10T04:54:05.562Z,25.1
2018-12-10T04:54:55.423Z,25.3
2018-12-10T04:55:44.612Z,25.3
2018-12-10T04:56:34.956Z,25.4
2018-12-10T04:57:24.132Z,25.4
2018-12-10T04:58:15.596Z,25.5
2018-12-10T04:59:05.448Z,25.6
2018-12-10T05:00:00.246Z,25.7
2018-12-10T05:00:45.847Z,25.8
2018-12-10T05:01:35.233Z,25.8
2018-12-10T05:02:25.341Z,25.9
2018-12-10T05:03:15.861Z,25.9
2018-12-10T05:04:06.533Z,26
2018-12-10T05:04:54.734Z,26
2018-12-10T05:05:45.031Z,26.1
2018-12-10T05:06:35.641Z,26.1
2018-12-10T05:07:25.346Z,26.1
2018-12-10T05:08:15.438Z,26.2
2018-12-10T05:09:06.316Z,26.3
2018-12-10T05:09:56.083Z,26.3
2018-12-10T05:10:45.696Z,26.3
2018-12-10T05:11:36.708Z,26.2
2018-12-10T05:12:25.703Z,26.1
2018-12-10T05:13:15.783Z,25.9
2018-12-10T05:14:06.718Z,25.8
2018-12-10T05:14:56.756Z,25.7
2018-12-10T05:15:46.775Z,25.6
2018-12-10T05:16:36.258Z,25.4
2018-12-10T05:17:26.586Z,25.3
2018-12-10T05:18:16.623Z,25.3
2018-12-10T05:19:07.035Z,25.2
2018-12-10T05:19:57.553Z,25.1
2018-12-10T05:20:46.841Z,25
2018-12-10T05:21:37.151Z,24.9
2018-12-10T05:22:27.521Z,24.9
2018-12-10T05:23:16.961Z,24.9
2018-12-10T05:24:06.595Z,24.9
2018-12-10T05:24:57.904Z,24.9
2018-12-10T05:25:47.424Z,24.9
2018-12-10T05:26:37.195Z,25
2018-12-10T05:27:27.573Z,25.1
2018-12-10T05:28:17.590Z,25.1
2018-12-10T05:29:07.133Z,25.2
2018-12-10T05:29:58.255Z,25.3
2018-12-10T05:30:47.550Z,25.3
2018-12-10T05:31:38.352Z,25.3
2018-12-10T05:32:27.640Z,25.3
2018-12-10T05:33:18.045Z,25.3
2018-12-10T05:34:07.775Z,25.3
2018-12-10T05:34:58.172Z,25.3
2018-12-10T05:35:48.528Z,25.3
2018-12-10T05:36:38.468Z,25.3
2018-12-10T05:37:27.132Z,25.2
2018-12-10T05:38:18.082Z,25.2
2018-12-10T05:39:07.517Z,25.2
2018-12-10T05:39:57.994Z,25.1
2018-12-10T05:40:48.236Z,25.1
2018-12-10T05:41:38.794Z,25.1
2018-12-10T05:42:28.057Z,25.1
2018-12-10T05:43:18.699Z,25.1
2018-12-10T05:44:08.152Z,25
2018-12-10T05:44:58.163Z,25.1
2018-12-10T05:45:47.981Z,25.1
2018-12-10T05:46:38.579Z,25.1
2018-12-10T05:47:29.212Z,25.2
2018-12-10T05:48:18.414Z,25.3
2018-12-10T05:49:08.752Z,25.4
2018-12-10T05:49:59.359Z,25.4
2018-12-10T05:50:49.169Z,25.6
2018-12-10T05:51:39.464Z,25.6
2018-12-10T05:52:29.607Z,25.7
2018-12-10T05:53:18.824Z,25.8
2018-12-10T05:54:09.222Z,25.8
2018-12-10T05:54:58.624Z,25.9
2018-12-10T05:55:49.248Z,25.9
2018-12-10T05:56:39.123Z,26
2018-12-10T05:57:28.999Z,26.1
2018-12-10T05:58:21.782Z,26.1
2018-12-10T05:59:09.729Z,26.1
2018-12-10T05:59:58.481Z,26.1
2018-12-10T06:00:50.341Z,26
2018-12-10T06:01:39.893Z,25.9
2018-12-10T06:02:29.945Z,25.8
2018-12-10T06:03:21.513Z,25.6
2018-12-10T06:04:10.628Z,25.6
2018-12-10T06:04:59.393Z,25.4
2018-12-10T06:05:50.250Z,25.4
2018-12-10T06:06:39.713Z,25.3
2018-12-10T06:07:29.438Z,25.2
2018-12-10T06:08:20.043Z,25.1
2018-12-10T06:09:10.176Z,25
2018-12-10T06:09:59.348Z,24.9
2018-12-10T06:10:50.270Z,24.9
2018-12-10T06:11:40.397Z,24.8
2018-12-10T06:12:30.712Z,24.8
2018-12-10T06:13:20.465Z,24.8
2018-12-10T06:14:10.997Z,24.8
2018-12-10T06:15:00.360Z,24.9
2018-12-10T06:15:51.482Z,24.9
2018-12-10T06:16:41.119Z,25.1
2018-12-10T06:17:30.998Z,25.1
2018-12-10T06:18:20.579Z,25.2
2018-12-10T06:19:10.529Z,25.3
2018-12-10T06:20:00.024Z,25.4
2018-12-10T06:20:50.508Z,25.4
2018-12-10T06:21:40.699Z,25.5
2018-12-10T06:22:31.036Z,25.6
2018-12-10T06:23:21.404Z,25.7
2018-12-10T06:24:10.576Z,25.8
2018-12-10T06:25:01.482Z,25.8
2018-12-10T06:25:51.304Z,25.9
2018-12-10T06:26:41.619Z,25.9
2018-12-10T06:27:31.119Z,26
2018-12-10T06:28:21.454Z,26.1
2018-12-10T06:29:11.474Z,26.1
2018-12-10T06:30:02.177Z,26.2
2018-12-10T06:30:52.185Z,26.2
2018-12-10T06:31:41.234Z,26.3
2018-12-10T06:32:31.723Z,26.2
2018-12-10T06:33:21.134Z,26.2
2018-12-10T06:34:13.963Z,26.1
2018-12-10T06:35:02.279Z,25.9
2018-12-10T06:35:52.616Z,25.8
2018-12-10T06:36:42.646Z,25.7
2018-12-10T06:37:39.703Z,25.6
2018-12-10T06:38:22.505Z,25.4
2018-12-10T06:39:12.201Z,25.4
2018-12-10T06:40:02.777Z,25.3
2018-12-10T06:40:52.553Z,25.2
2018-12-10T06:41:42.354Z,25.1
2018-12-10T06:42:32.401Z,25
2018-12-10T06:43:23.000Z,25
2018-12-10T06:44:12.020Z,24.9
2018-12-10T06:45:02.363Z,24.9
2018-12-10T06:45:52.925Z,24.9
2018-12-10T06:46:42.814Z,25
2018-12-10T06:47:32.752Z,25.1
2018-12-10T06:48:23.170Z,25.1
2018-12-10T06:49:12.655Z,25.2
2018-12-10T06:50:02.714Z,25.3
2018-12-10T06:50:53.218Z,25.3
2018-12-10T06:51:42.677Z,25.4
2018-12-10T06:52:33.312Z,25.5
2018-12-10T06:53:22.841Z,25.6
2018-12-10T06:54:12.982Z,25.6
2018-12-10T06:55:05.950Z,25.8
2018-12-10T06:55:53.307Z,25.8
2018-12-10T06:56:44.144Z,25.9
2018-12-10T06:57:33.374Z,25.9
2018-12-10T06:58:23.019Z,26
2018-12-10T06:59:13.551Z,26.1
2018-12-10T07:00:03.616Z,26.1
2018-12-10T07:00:54.194Z,26.1
2018-12-10T07:01:43.678Z,26.2
2018-12-10T07:02:34.269Z,26.3
2018-12-10T07:03:23.536Z,26.3
2018-12-10T07:04:14.181Z,26.3
2018-12-10T07:05:04.530Z,26.4
2018-12-10T07:05:53.426Z,26.4
2018-12-10T07:06:44.376Z,26.4
2018-12-10T07:07:34.431Z,26.3
2018-12-10T07:08:23.673Z,26.3
2018-12-10T07:09:13.975Z,26.2
2018-12-10T07:10:03.989Z,26.1
2018-12-10T07:10:55.150Z,25.9
2018-12-10T07:11:45.475Z,25.8
2018-12-10T07:12:34.848Z,25.7
2018-12-10T07:13:24.443Z,25.6
2018-12-10T07:14:14.790Z,25.4
2018-12-10T07:15:04.863Z,25.4
2018-12-10T07:15:54.925Z,25.3
2018-12-10T07:16:44.458Z,25.2
2018-12-10T07:17:34.205Z,25.1
2018-12-10T07:18:24.788Z,25.1
2018-12-10T07:19:14.647Z,25.1
2018-12-10T07:20:04.673Z,25
2018-12-10T07:20:55.063Z,25.1
2018-12-10T07:21:44.230Z,25.1
2018-12-10T07:22:34.899Z,25.1
2018-12-10T07:23:25.267Z,25.2
2018-12-10T07:24:14.657Z,25.3
2018-12-10T07:25:06.211Z,25.3
2018-12-10T07:25:54.757Z,25.4
2018-12-10T07:26:45.685Z,25.4
2018-12-10T07:27:35.225Z,25.5
2018-12-10T07:28:24.991Z,25.5
2018-12-10T07:29:15.579Z,25.5
2018-12-10T07:30:05.950Z,25.4
2018-12-10T07:30:55.924Z,25.4
2018-12-10T07:31:46.099Z,25.4
2018-12-10T07:32:36.049Z,25.4
2018-12-10T07:33:25.567Z,25.3
2018-12-10T07:34:16.166Z,25.3
2018-12-10T07:35:05.706Z,25.3
2018-12-10T07:35:56.074Z,25.3
2018-12-10T07:36:46.094Z,25.3
2018-12-10T07:37:36.694Z,25.2
2018-12-10T07:38:26.724Z,25.2
2018-12-10T07:39:16.254Z,25.2
2018-12-10T07:40:08.397Z,25.1
2018-12-10T07:40:56.926Z,25.1
2018-12-10T07:41:45.571Z,25.1
2018-12-10T07:42:37.009Z,25.1
2018-12-10T07:43:25.964Z,25.1
2018-12-10T07:44:16.294Z,25.3
2018-12-10T07:45:06.376Z,25.3
2018-12-10T07:45:56.208Z,25.4
2018-12-10T07:46:47.557Z,25.4
2018-12-10T07:47:36.920Z,25.5
2018-12-10T07:48:27.120Z,25.6
2018-12-10T07:49:16.903Z,25.7
2018-12-10T07:50:07.267Z,25.8
2018-12-10T07:50:57.053Z,25.8
2018-12-10T07:51:47.101Z,25.9
2018-12-10T07:52:37.768Z,25.9
2018-12-10T07:53:27.721Z,25.9
2018-12-10T07:54:17.918Z,26
2018-12-10T07:55:07.338Z,26.1
2018-12-10T07:55:58.400Z,26.1
2018-12-10T07:56:47.412Z,26.1
2018-12-10T07:57:36.930Z,26.1
2018-12-10T07:58:27.652Z,25.9
2018-12-10T07:59:17.094Z,25.8
2018-12-10T08:00:07.182Z,25.7
2018-12-10T08:00:57.242Z,25.6
2018-12-10T08:01:47.858Z,25.4
2018-12-10T08:02:37.175Z,25.3
2018-12-10T08:03:27.425Z,25.3
2018-12-10T08:04:17.434Z,25.2
2018-12-10T08:05:16.017Z,25.1
2018-12-10T08:05:57.676Z,24.9
2018-12-10T08:06:47.414Z,24.9
2018-12-10T08:07:38.025Z,24.9
2018-12-10T08:08:27.879Z,24.9
2018-12-10T08:09:18.579Z,24.9
2018-12-10T08:10:08.731Z,24.9
2018-12-10T08:10:57.820Z,25
2018-12-10T08:11:48.948Z,25
2018-12-10T08:12:38.225Z,25.1
2018-12-10T08:13:28.811Z,25.1
2018-12-10T08:14:18.600Z,25.2
2018-12-10T08:15:08.447Z,25.3
2018-12-10T08:15:58.718Z,25.4
2018-12-10T08:16:48.750Z,25.4
2018-12-10T08:17:38.300Z,25.6
2018-12-10T08:18:28.337Z,25.6
2018-12-10T08:19:19.227Z,25.8
2018-12-10T08:20:07.950Z,25.8
2018-12-10T08:21:08.291Z,25.9
2018-12-10T08:21:49.129Z,25.9
2018-12-10T08:22:38.637Z,26
2018-12-10T08:23:29.716Z,26.1
2018-12-10T08:24:19.062Z,26.1
2018-12-10T08:25:09.449Z,26.2
2018-12-10T08:25:58.317Z,26.2
2018-12-10T08:26:49.477Z,26.1
2018-12-10T08:27:39.817Z,26.1
2018-12-10T08:28:29.889Z,25.9
2018-12-10T08:29:19.937Z,25.8
2018-12-10T08:30:10.226Z,25.7
2018-12-10T08:30:59.602Z,25.6
2018-12-10T08:31:50.022Z,25.4
2018-12-10T08:32:40.248Z,25.4
2018-12-10T08:33:29.099Z,25.3
2018-12-10T08:34:20.003Z,25.2
2018-12-10T08:35:10.358Z,25.1
2018-12-10T08:36:01.011Z,25
2018-12-10T08:36:49.586Z,24.9
2018-12-10T08:37:40.489Z,24.8
2018-12-10T08:38:30.142Z,24.9
2018-12-10T08:39:20.508Z,24.8
2018-12-10T08:40:11.010Z,24.8
2018-12-10T08:40:59.684Z,24.8
2018-12-10T08:41:49.770Z,24.9
2018-12-10T08:42:40.794Z,24.9
2018-12-10T08:43:30.137Z,25
2018-12-10T08:44:20.350Z,25.1
2018-12-10T08:45:11.288Z,25.1
2018-12-10T08:46:00.268Z,25.3
2018-12-10T08:46:50.755Z,25.3
2018-12-10T08:47:41.298Z,25.4
2018-12-10T08:48:30.653Z,25.5
2018-12-10T08:49:21.235Z,25.6
2018-12-10T08:50:10.187Z,25.7
2018-12-10T08:51:01.739Z,25.8
2018-12-10T08:51:51.065Z,25.8
2018-12-10T08:52:40.670Z,25.9
2018-12-10T09:08:28.605Z,25.4
2018-12-10T09:09:17.591Z,25.3
2018-12-10T09:10:08.798Z,25.1
2018-12-10T09:10:58.266Z,25.2
2018-12-10T09:11:48.071Z,25.1
2018-12-10T09:12:46.746Z,25.1
2018-12-10T09:13:29.336Z,25.1
2018-12-10T09:14:19.400Z,25.2
2018-12-10T09:15:08.576Z,25.3
2018-12-10T09:15:58.595Z,25.3
2018-12-10T09:16:49.972Z,25.3
2018-12-10T09:17:39.746Z,25.4
2018-12-10T09:18:28.988Z,25.4
2018-12-10T09:19:19.273Z,25.6
2018-12-10T09:20:09.413Z,25.6
2018-12-10T09:20:59.740Z,25.6
2018-12-10T09:21:48.908Z,25.6
2018-12-10T09:22:38.306Z,25.6
2018-12-10T09:23:29.682Z,25.6
2018-12-10T09:24:19.970Z,25.5
2018-12-10T09:25:09.198Z,25.5
2018-12-10T09:25:59.532Z,25.4
2018-12-10T09:26:50.066Z,25.4
2018-12-10T09:27:39.929Z,25.4
2018-12-10T09:28:29.771Z,25.3
2018-12-10T09:29:19.633Z,25.3
2018-12-10T09:30:10.113Z,25.3
2018-12-10T09:31:00.177Z,25.3
2018-12-10T09:31:49.874Z,25.3
2018-12-10T09:32:40.524Z,25.2
2018-12-10T09:33:29.494Z,25.2
2018-12-10T09:34:20.412Z,25.3
2018-12-10T09:35:10.540Z,25.3
2018-12-10T09:36:00.319Z,25.3
2018-12-10T09:36:49.161Z,25.4
2018-12-10T09:37:40.306Z,25.4
2018-12-10T09:38:30.911Z,25.6
2018-12-10T09:39:20.434Z,25.6
2018-12-10T09:40:09.929Z,25.7
2018-12-10T09:41:00.511Z,25.8
2018-12-10T09:41:50.166Z,25.8
2018-12-10T09:42:40.918Z,25.9
2018-12-10T09:43:31.296Z,25.9
2018-12-10T09:44:20.567Z,26
2018-12-10T09:45:10.921Z,26.1
2018-12-10T09:46:00.671Z,26.1
2018-12-10T09:47:00.009Z,26.1
2018-12-10T09:47:40.769Z,26.1
2018-12-10T09:48:29.476Z,26.1
2018-12-10T09:49:20.596Z,26
2018-12-10T09:50:10.136Z,25.9
2018-12-10T09:51:01.808Z,25.8
2018-12-10T09:51:51.868Z,25.7
2018-12-10T09:52:41.384Z,25.6
2018-12-10T09:53:31.390Z,25.5
2018-12-10T09:54:22.039Z,25.4
2018-12-10T09:55:11.803Z,25.3
2018-12-10T09:56:01.122Z,25.2
2018-12-10T09:56:51.791Z,25.1
2018-12-10T09:57:41.980Z,25
2018-12-10T09:58:32.035Z,25
2018-12-10T09:59:22.320Z,24.9
2018-12-10T10:00:11.320Z,24.9
2018-12-10T10:01:01.961Z,24.9
2018-12-10T10:01:51.702Z,25.1
2018-12-10T10:02:41.795Z,25.1
2018-12-10T10:03:32.480Z,25.2
2018-12-10T10:04:22.187Z,25.3
2018-12-10T10:05:11.962Z,25.3
2018-12-10T10:06:02.817Z,25.4
2018-12-10T10:06:52.851Z,25.4
2018-12-10T10:07:42.345Z,25.6
2018-12-10T10:08:33.225Z,25.6
2018-12-10T10:09:23.293Z,25.8
2018-12-10T10:10:12.612Z,25.8
2018-12-10T10:11:02.337Z,25.9
2018-12-10T10:11:53.154Z,25.9
2018-12-10T10:12:43.083Z,25.9
2018-12-10T10:13:32.782Z,26
2018-12-10T10:14:23.114Z,26
2018-12-10T10:15:13.318Z,26
2018-12-10T10:16:03.624Z,26
2018-12-10T10:16:53.185Z,26
2018-12-10T10:17:42.847Z,25.9
2018-12-10T10:18:33.415Z,25.8
2018-12-10T10:19:22.887Z,25.8
2018-12-10T10:20:12.142Z,25.6
2018-12-10T10:21:03.297Z,25.5
2018-12-10T10:21:53.041Z,25.4
2018-12-10T10:22:43.384Z,25.3
2018-12-10T10:23:33.834Z,25.3
2018-12-10T10:24:23.774Z,25.1
2018-12-10T10:25:14.108Z,25.1
2018-12-10T10:26:03.639Z,25
2018-12-10T10:26:52.846Z,24.9
2018-12-10T10:27:43.741Z,24.9
2018-12-10T10:28:33.815Z,24.8
2018-12-10T10:29:24.361Z,24.8
2018-12-10T10:30:13.881Z,24.7
2018-12-10T10:31:03.695Z,24.7
2018-12-10T10:31:53.747Z,24.6
2018-12-10T10:32:43.251Z,24.5
2018-12-10T10:33:39.503Z,24.5
2018-12-10T10:34:23.783Z,24.4
2018-12-10T10:35:14.821Z,24.4
2018-12-10T10:36:04.451Z,24.4
2018-12-10T10:36:54.368Z,24.3
2018-12-10T10:37:44.149Z,24.3
2018-12-10T10:38:34.493Z,24.3
2018-12-10T10:39:24.759Z,24.2
2018-12-10T10:40:14.588Z,24.1
2018-12-10T10:41:04.658Z,24.1
2018-12-10T10:41:54.521Z,24.1
2018-12-10T10:42:44.490Z,24
2018-12-10T10:43:35.103Z,24
2018-12-10T10:44:24.333Z,24
2018-12-10T10:45:14.665Z,23.9
2018-12-10T10:46:05.086Z,23.9
2018-12-10T10:46:55.094Z,23.9
2018-12-10T10:47:46.047Z,23.9
2018-12-10T10:48:34.634Z,23.8
2018-12-10T10:49:24.940Z,23.8
2018-12-10T10:50:15.137Z,23.8
2018-12-10T10:51:05.342Z,23.8
2018-12-10T10:51:54.392Z,23.7
2018-12-10T10:52:44.967Z,23.6
2018-12-10T10:53:35.312Z,23.6
2018-12-10T10:54:25.702Z,23.6
2018-12-10T10:55:15.872Z,23.6
2018-12-10T10:56:05.189Z,23.5
2018-12-10T10:56:55.247Z,23.5
2018-12-10T10:57:45.554Z,23.5
2018-12-10T10:58:35.814Z,23.4
2018-12-10T10:59:26.177Z,23.4
2018-12-10T11:00:16.462Z,23.4
2018-12-10T11:01:06.276Z,23.3
2018-12-10T11:01:56.365Z,23.3
2018-12-10T11:02:48.524Z,23.3
2018-12-10T11:03:36.454Z,23.3
2018-12-10T11:04:26.412Z,23.2
2018-12-10T11:05:16.467Z,23.2
2018-12-10T11:06:06.629Z,23.1
2018-12-10T11:06:55.962Z,23.1
2018-12-10T11:07:45.999Z,23.1
2018-12-10T11:08:36.818Z,23.1
2018-12-10T11:09:27.019Z,23
2018-12-10T11:10:16.963Z,22.9
2018-12-10T11:11:07.366Z,22.9
2018-12-10T11:11:56.751Z,22.9
2018-12-10T11:12:45.986Z,22.9
2018-12-10T11:13:37.133Z,22.8
2018-12-10T11:14:27.629Z,22.8
2018-12-10T11:15:15.873Z,22.8
2018-12-10T11:16:07.154Z,22.8
2018-12-10T11:16:57.113Z,22.7
2018-12-10T11:17:47.153Z,22.6
2018-12-10T11:18:37.270Z,22.6
2018-12-10T11:19:27.309Z,22.6
2018-12-10T11:20:17.628Z,22.6
2018-12-10T11:21:07.681Z,22.5
2018-12-10T11:21:57.438Z,22.5
2018-12-10T11:22:47.676Z,22.4
2018-12-10T11:23:38.373Z,22.4
2018-12-10T11:24:27.345Z,22.4
2018-12-10T11:25:18.278Z,22.4
2018-12-10T11:26:07.613Z,22.3
2018-12-10T11:26:57.763Z,22.3
2018-12-10T11:27:47.075Z,22.3
2018-12-10T11:28:38.415Z,22.3
2018-12-10T11:29:27.395Z,22.3
2018-12-10T11:30:17.762Z,22.2
2018-12-10T11:31:07.609Z,22.1
2018-12-10T11:31:58.082Z,22.1
2018-12-10T11:32:48.170Z,22.1
2018-12-10T11:33:37.236Z,22.1
2018-12-10T11:34:28.297Z,22
2018-12-10T11:35:18.347Z,22
2018-12-10T11:36:08.434Z,21.9
2018-12-10T11:36:58.755Z,21.9
2018-12-10T11:37:48.487Z,21.9
2018-12-10T11:38:38.314Z,21.9
2018-12-10T11:39:28.094Z,21.9
2018-12-10T11:40:18.952Z,21.9
2018-12-10T11:41:08.879Z,21.8
2018-12-10T11:41:59.136Z,21.8
2018-12-10T11:42:48.359Z,21.8
2018-12-10T11:43:38.912Z,21.8
2018-12-10T11:44:28.976Z,21.7
2018-12-10T11:45:19.327Z,21.7
2018-12-10T11:46:09.362Z,21.6
2018-12-10T11:46:59.394Z,21.6
2018-12-10T11:47:50.681Z,21.6
2018-12-10T11:48:39.546Z,21.6
2018-12-10T11:49:29.596Z,21.5
2018-12-10T11:50:21.575Z,21.5
2018-12-10T11:51:09.434Z,21.4
2018-12-10T11:51:59.479Z,21.4
2018-12-10T11:52:49.956Z,21.4
2018-12-10T11:53:39.041Z,21.4
2018-12-10T11:54:29.657Z,21.4
2018-12-10T11:55:19.996Z,21.3
2018-12-10T11:56:10.039Z,21.3
2018-12-10T11:57:00.141Z,21.3
2018-12-10T11:57:50.253Z,21.3
2018-12-10T11:58:39.661Z,21.3